Ada — ERJD — position and weather

sailwx.info

Track history (hours):
 
Tides and Currents Weather Stations Pressure Air Temp Water Temp Dewpoint Dewpoint Depression Visibility Wind Speed Wind Dir Waves Ship Positions

Ada

Last reported at 2014-Oct-13 10:20 UTC. Time now 2014-Oct-21 08:43 UTC.
Position N 45°01' E 036°30'.

Length 73 m; draft 3.2 m.

Type: Cargo ship. MMSI: 214181004.

Date/timePositionNaut miles runAvg speedWind from/ knotsBaromVisibWave heightAir tempDewpointWater temp
2014-Oct-13 10:20N 45°01' E 036°30'7 8.6
2014-Oct-13 09:33N 44°54' E 036°30'23 7.5
2014-Oct-13 06:28N 44°39' E 036°06'8 7.8
2014-Oct-13 05:30N 44°36' E 035°56'7 7.7
2014-Oct-13 04:32N 44°32' E 035°47'10 7.9
2014-Oct-13 03:17N 44°28' E 035°35'6 8.0
2014-Oct-13 02:32N 44°25' E 035°27'9 8.1
2014-Oct-13 01:26N 44°20' E 035°16'8 8.1
2014-Oct-13 00:29N 44°17' E 035°07'8 7.9
2014-Oct-12 23:31N 44°14' E 034°57'8 8.0
2014-Oct-12 22:33N 44°12' E 034°47'10 7.7
2014-Oct-12 21:12N 44°09' E 034°33'5 8.0
2014-Oct-12 20:33N 44°07' E 034°26'  
Track history (hours):
 
Tides and Currents Weather Stations Pressure Air Temp Water Temp Dewpoint Dewpoint Depression Visibility Wind Speed Wind Dir Waves Ship Positions

Ada

Last reported at 2014-Oct-13 10:20 UTC. Time now 2014-Oct-21 08:43 UTC.
Position N 45°01' E 036°30'.

Length 73 m; draft 3.2 m.

Type: Cargo ship. MMSI: 214181004.

Date/timePositionNaut miles runAvg speedWind from/ knotsBaromVisibWave heightAir tempDewpointWater temp
2014-Oct-13 10:20N 45°01' E 036°30'7 8.6
2014-Oct-13 09:33N 44°54' E 036°30'23 7.5
2014-Oct-13 06:28N 44°39' E 036°06'8 7.8
2014-Oct-13 05:30N 44°36' E 035°56'7 7.7
2014-Oct-13 04:32N 44°32' E 035°47'10 7.9
2014-Oct-13 03:17N 44°28' E 035°35'6 8.0
2014-Oct-13 02:32N 44°25' E 035°27'9 8.1
2014-Oct-13 01:26N 44°20' E 035°16'8 8.1
2014-Oct-13 00:29N 44°17' E 035°07'8 7.9
2014-Oct-12 23:31N 44°14' E 034°57'8 8.0
2014-Oct-12 22:33N 44°12' E 034°47'10 7.7
2014-Oct-12 21:12N 44°09' E 034°33'5 8.0
2014-Oct-12 20:33N 44°07' E 034°26'  

Dump ship's entire track history